Time;durP1;ratioP1;P1;durP2;ratioP2;P2;SDS_P1;SDS_P2;PMS_P1;PMS_P2;Temp;Humidity;BMP_temperature;BMP_pressure;BME280_temperature;BME280_humidity;BME280_pressure;Samples;Min_cycle;Max_cycle;Signal;HPM_P1;HPM_P2
2022/09/06 00:00:13;;;;;;;4.13;3.60;;;;;;;;;;4894649;29;20203;-42
2022/09/06 00:02:40;;;;;;;7.17;3.97;;;;;;;;;;4897995;29;20260;-41
2022/09/06 00:05:06;;;;;;;4.10;3.10;;;;;;;;;;4893438;29;21041;-43
2022/09/06 00:07:32;;;;;;;5.70;3.67;;;;;;;;;;4894397;29;20176;-42
2022/09/06 00:09:58;;;;;;;7.60;3.60;;;;;;;;;;4892428;29;20286;-43
2022/09/06 00:12:25;;;;;;;6.60;3.63;;;;;;;;;;4896399;29;20275;-41
2022/09/06 00:14:51;;;;;;;6.17;3.77;;;;;;;;;;4893385;29;20189;-42
2022/09/06 00:17:18;;;;;;;5.70;3.60;;;;;;;;;;4894944;29;20184;-42
2022/09/06 00:19:44;;;;;;;7.30;4.07;;;;;;;;;;4894519;29;20710;-42
2022/09/06 00:22:10;;;;;;;8.33;4.33;;;;;;;;;;4897090;28;20183;-42
2022/09/06 00:24:37;;;;;;;8.80;4.47;;;;;;;;;;4893688;29;20661;-41
2022/09/06 00:27:04;;;;;;;5.53;3.67;;;;;;;;;;4893194;29;20360;-42
2022/09/06 00:29:30;;;;;;;8.50;4.10;;;;;;;;;;4896437;28;20225;-42
2022/09/06 00:31:56;;;;;;;7.07;4.00;;;;;;;;;;4898130;29;20311;-42
2022/09/06 00:34:22;;;;;;;5.13;3.80;;;;;;;;;;4897633;29;20186;-43
2022/09/06 00:36:48;;;;;;;7.17;4.93;;;;;;;;;;4901146;29;20192;-42
2022/09/06 00:39:15;;;;;;;5.43;3.50;;;;;;;;;;4898201;29;21233;-43
2022/09/06 00:41:41;;;;;;;6.23;3.60;;;;;;;;;;4899136;29;20211;-43
2022/09/06 00:44:07;;;;;;;5.73;3.67;;;;;;;;;;4896188;29;20179;-42
2022/09/06 00:46:33;;;;;;;4.57;3.63;;;;;;;;;;4895152;29;20612;-43
2022/09/06 00:49:06;;;;;;;6.27;3.93;;;;;;;;;;4895693;29;20183;-42
2022/09/06 00:51:33;;;;;;;4.93;3.60;;;;;;;;;;4902372;29;20242;-43
2022/09/06 00:54:02;;;;;;;4.47;3.50;;;;;;;;;;4899303;29;20509;-43
2022/09/06 00:56:30;;;;;;;3.53;3.23;;;;;;;;;;4897799;29;20628;-41
2022/09/06 00:58:56;;;;;;;5.57;3.43;;;;;;;;;;4901095;29;20835;-42
2022/09/06 01:01:22;;;;;;;5.77;3.83;;;;;;;;;;4898590;29;20212;-42
2022/09/06 01:03:48;;;;;;;6.37;3.67;;;;;;;;;;4900621;29;20184;-42
2022/09/06 01:06:18;;;;;;;8.07;3.40;;;;;;;;;;4895464;29;20950;-43
2022/09/06 01:08:47;;;;;;;4.30;3.30;;;;;;;;;;4893768;28;20267;-42
2022/09/06 01:11:32;;;;;;;7.27;3.50;;;;;;;;;;4898362;29;20638;-42
2022/09/06 01:14:14;;;;;;;4.20;3.00;;;;;;;;;;4901606;29;20243;-43
2022/09/06 01:17:04;;;;;;;4.93;2.80;;;;;;;;;;4898750;29;22008;-43
2022/09/06 01:19:35;;;;;;;6.00;3.27;;;;;;;;;;4916262;28;20192;-43
2022/09/06 01:22:28;;;;;;;5.77;3.03;;;;;;;;;;4899474;29;20855;-42
2022/09/06 01:25:13;;;;;;;6.20;3.10;;;;;;;;;;4901743;28;20745;-43
2022/09/06 01:27:45;;;;;;;6.03;3.07;;;;;;;;;;4896310;29;20172;-43
2022/09/06 01:30:13;;;;;;;4.00;3.10;;;;;;;;;;4898351;29;20383;-42
2022/09/06 01:32:54;;;;;;;3.93;2.77;;;;;;;;;;4897645;29;20287;-42
2022/09/06 01:35:21;;;;;;;4.10;2.60;;;;;;;;;;4898860;28;20527;-43
2022/09/06 01:37:48;;;;;;;5.27;2.80;;;;;;;;;;4904994;29;20673;-42
2022/09/06 01:40:14;;;;;;;4.17;3.00;;;;;;;;;;4898576;29;20230;-42
2022/09/06 01:42:41;;;;;;;6.30;3.53;;;;;;;;;;4896103;29;20674;-43
2022/09/06 01:45:12;;;;;;;3.90;2.80;;;;;;;;;;4890728;29;20181;-41
2022/09/06 01:47:56;;;;;;;6.27;3.27;;;;;;;;;;4897959;29;20183;-42
2022/09/06 01:50:41;;;;;;;8.27;3.50;;;;;;;;;;4900730;29;20786;-42
2022/09/06 01:53:21;;;;;;;4.30;3.20;;;;;;;;;;4896668;29;20660;-43
2022/09/06 01:55:54;;;;;;;6.77;3.33;;;;;;;;;;4894729;29;20255;-42
2022/09/06 01:58:39;;;;;;;3.73;3.10;;;;;;;;;;4896211;28;20176;-42
2022/09/06 02:01:23;;;;;;;6.53;3.20;;;;;;;;;;4892486;29;20679;-42
2022/09/06 02:03:58;;;;;;;6.83;3.33;;;;;;;;;;4895853;29;21348;-43
2022/09/06 02:06:27;;;;;;;3.43;2.90;;;;;;;;;;4891888;29;20170;-42
2022/09/06 02:09:05;;;;;;;5.17;3.00;;;;;;;;;;4896091;29;20374;-42
2022/09/06 02:11:33;;;;;;;3.67;3.23;;;;;;;;;;4898646;29;20184;-42
2022/09/06 02:14:06;;;;;;;4.30;3.07;;;;;;;;;;4895272;29;20401;-43
2022/09/06 02:16:34;;;;;;;4.77;3.00;;;;;;;;;;4895079;28;20256;-43
2022/09/06 02:19:22;;;;;;;6.23;3.03;;;;;;;;;;4892127;29;20506;-41
2022/09/06 02:21:50;;;;;;;5.50;3.20;;;;;;;;;;4895189;29;20288;-43
2022/09/06 02:24:20;;;;;;;5.50;2.90;;;;;;;;;;4896544;29;20387;-43
2022/09/06 02:26:47;;;;;;;5.67;3.10;;;;;;;;;;4898737;28;20708;-43
2022/09/06 02:29:13;;;;;;;4.03;2.93;;;;;;;;;;4895194;29;20989;-42
2022/09/06 02:31:42;;;;;;;7.73;3.23;;;;;;;;;;4891361;29;20505;-41
2022/09/06 02:34:09;;;;;;;7.43;3.57;;;;;;;;;;4895742;29;20194;-43
2022/09/06 02:36:36;;;;;;;9.27;3.27;;;;;;;;;;4893598;29;20997;-43
2022/09/06 02:39:02;;;;;;;7.70;3.40;;;;;;;;;;4891895;29;20811;-43
2022/09/06 02:41:29;;;;;;;5.43;3.00;;;;;;;;;;4896594;29;20534;-42
2022/09/06 02:43:56;;;;;;;5.57;2.90;;;;;;;;;;4894047;29;20177;-43
2022/09/06 02:46:23;;;;;;;6.33;2.80;;;;;;;;;;4894918;29;20168;-43
2022/09/06 02:48:49;;;;;;;7.60;3.17;;;;;;;;;;4897969;29;20878;-43
2022/09/06 02:51:15;;;;;;;5.13;2.80;;;;;;;;;;4890057;29;20188;-42
2022/09/06 02:53:41;;;;;;;3.70;3.00;;;;;;;;;;4894257;29;20930;-43
2022/09/06 02:56:08;;;;;;;6.20;2.97;;;;;;;;;;4895660;29;20539;-42
2022/09/06 02:58:34;;;;;;;8.60;3.00;;;;;;;;;;4895325;29;20211;-43
2022/09/06 03:01:00;;;;;;;4.80;2.90;;;;;;;;;;4891311;29;20204;-41
2022/09/06 03:03:26;;;;;;;5.60;3.00;;;;;;;;;;4893439;29;20176;-43
2022/09/06 03:05:53;;;;;;;3.33;2.80;;;;;;;;;;4897604;29;20183;-43
2022/09/06 03:08:20;;;;;;;6.00;3.03;;;;;;;;;;4894944;29;20184;-41
2022/09/06 03:10:50;;;;;;;5.03;2.83;;;;;;;;;;4895564;29;20631;-43
2022/09/06 03:13:16;;;;;;;5.63;2.83;;;;;;;;;;4895380;29;20570;-43
2022/09/06 03:15:43;;;;;;;5.27;2.80;;;;;;;;;;4895067;29;20183;-42
2022/09/06 03:18:09;;;;;;;5.43;3.00;;;;;;;;;;4896926;29;20299;-41
2022/09/06 03:20:35;;;;;;;5.67;3.07;;;;;;;;;;4894843;29;20610;-43
2022/09/06 03:23:01;;;;;;;4.37;2.70;;;;;;;;;;4885584;29;20184;-43
2022/09/06 03:25:27;;;;;;;6.47;3.10;;;;;;;;;;4891974;29;20187;-42
2022/09/06 03:27:53;;;;;;;3.27;2.70;;;;;;;;;;4893429;29;20706;-43
2022/09/06 03:30:19;;;;;;;4.20;2.73;;;;;;;;;;4892383;29;20262;-41
2022/09/06 03:32:45;;;;;;;5.63;2.70;;;;;;;;;;4891781;29;20415;-42
2022/09/06 03:35:11;;;;;;;6.97;2.90;;;;;;;;;;4896117;29;21294;-43
2022/09/06 03:37:37;;;;;;;5.63;2.90;;;;;;;;;;4895704;29;20294;-41
2022/09/06 03:40:07;;;;;;;4.83;3.20;;;;;;;;;;4893074;29;20913;-42
2022/09/06 03:42:33;;;;;;;7.57;3.07;;;;;;;;;;4895180;28;20180;-43
2022/09/06 03:44:59;;;;;;;4.10;2.70;;;;;;;;;;4893446;29;20182;-43
2022/09/06 03:47:25;;;;;;;5.30;2.97;;;;;;;;;;4894795;29;20598;-43
2022/09/06 03:49:51;;;;;;;6.17;3.10;;;;;;;;;;4895667;29;20204;-42
2022/09/06 03:52:17;;;;;;;6.63;3.00;;;;;;;;;;4894047;29;20180;-43
2022/09/06 03:54:43;;;;;;;4.00;3.00;;;;;;;;;;4891576;29;20169;-43
2022/09/06 03:57:09;;;;;;;4.93;2.73;;;;;;;;;;4896431;29;20407;-43
2022/09/06 03:59:36;;;;;;;7.97;3.60;;;;;;;;;;4896601;29;20235;-42
2022/09/06 04:02:02;;;;;;;6.33;3.20;;;;;;;;;;4894828;29;20200;-42
2022/09/06 04:04:28;;;;;;;5.13;3.30;;;;;;;;;;4890144;29;20598;-43
2022/09/06 04:06:54;;;;;;;13.53;4.23;;;;;;;;;;4893594;29;20334;-42
2022/09/06 04:09:20;;;;;;;13.20;5.03;;;;;;;;;;4895972;29;20184;-40
2022/09/06 04:11:46;;;;;;;13.20;4.50;;;;;;;;;;4890224;29;20184;-42
2022/09/06 04:14:12;;;;;;;16.57;4.63;;;;;;;;;;4887690;29;20211;-43
2022/09/06 04:16:39;;;;;;;19.10;4.80;;;;;;;;;;4892943;29;20416;-43
2022/09/06 04:19:05;;;;;;;10.37;4.40;;;;;;;;;;4894203;29;20190;-42
2022/09/06 04:21:31;;;;;;;11.80;4.73;;;;;;;;;;4891147;29;20203;-43
2022/09/06 04:23:57;;;;;;;12.83;4.40;;;;;;;;;;4889859;29;20787;-41
2022/09/06 04:26:23;;;;;;;15.07;4.53;;;;;;;;;;4893279;29;20176;-41
2022/09/06 04:28:49;;;;;;;8.93;4.53;;;;;;;;;;4897955;29;20172;-42
2022/09/06 04:31:15;;;;;;;7.07;4.20;;;;;;;;;;4890747;29;20946;-42
2022/09/06 04:33:42;;;;;;;9.50;4.57;;;;;;;;;;4891723;29;20187;-42
2022/09/06 04:36:09;;;;;;;7.10;4.10;;;;;;;;;;4894278;29;20506;-42
2022/09/06 04:38:36;;;;;;;12.00;4.90;;;;;;;;;;4897259;29;20276;-43
2022/09/06 04:41:03;;;;;;;7.80;3.80;;;;;;;;;;4896087;29;20432;-41
2022/09/06 04:43:29;;;;;;;9.40;3.87;;;;;;;;;;4891989;28;20697;-42
2022/09/06 04:45:55;;;;;;;10.23;4.83;;;;;;;;;;4890396;29;20329;-43
2022/09/06 04:48:21;;;;;;;6.93;4.17;;;;;;;;;;4894342;29;20175;-43
2022/09/06 04:50:47;;;;;;;7.33;5.13;;;;;;;;;;4894051;29;20191;-42
2022/09/06 04:53:13;;;;;;;10.00;4.80;;;;;;;;;;4892004;29;21037;-42
2022/09/06 04:55:39;;;;;;;7.70;4.80;;;;;;;;;;4892680;29;20184;-42
2022/09/06 04:58:06;;;;;;;6.60;5.10;;;;;;;;;;4892689;29;20452;-42
2022/09/06 05:00:32;;;;;;;7.87;5.27;;;;;;;;;;4896254;28;20761;-42
2022/09/06 05:02:58;;;;;;;10.77;5.60;;;;;;;;;;4892151;29;20275;-41
2022/09/06 05:05:25;;;;;;;12.23;6.03;;;;;;;;;;4892137;29;20184;-42
2022/09/06 05:07:51;;;;;;;11.50;6.23;;;;;;;;;;4893900;29;20199;-42
2022/09/06 05:10:17;;;;;;;10.43;6.43;;;;;;;;;;4893635;29;20180;-42
2022/09/06 05:12:44;;;;;;;12.03;6.80;;;;;;;;;;4895573;29;20325;-42
2022/09/06 05:15:10;;;;;;;10.93;7.70;;;;;;;;;;4893924;29;20693;-40
2022/09/06 05:17:36;;;;;;;10.43;7.70;;;;;;;;;;4899054;29;20542;-40
2022/09/06 05:20:03;;;;;;;10.57;6.90;;;;;;;;;;4899602;29;20188;-41
2022/09/06 05:22:29;;;;;;;13.47;8.90;;;;;;;;;;4894071;29;28550;-42
2022/09/06 05:24:55;;;;;;;12.13;8.90;;;;;;;;;;4892335;29;20584;-41
2022/09/06 05:27:21;;;;;;;14.03;9.67;;;;;;;;;;4899979;29;20665;-41
2022/09/06 05:29:47;;;;;;;13.93;9.90;;;;;;;;;;4892594;29;20180;-42
2022/09/06 05:32:13;;;;;;;17.87;11.03;;;;;;;;;;4896966;29;20423;-41
2022/09/06 05:34:39;;;;;;;17.70;13.50;;;;;;;;;;4894741;29;20646;-42
2022/09/06 05:37:06;;;;;;;21.43;15.73;;;;;;;;;;4898323;29;20180;-42
2022/09/06 05:39:32;;;;;;;17.73;15.83;;;;;;;;;;4902257;29;20180;-39
2022/09/06 05:41:59;;;;;;;26.00;19.93;;;;;;;;;;4895403;29;20683;-41
2022/09/06 05:44:27;;;;;;;23.77;18.83;;;;;;;;;;4893994;29;20440;-42
2022/09/06 05:46:53;;;;;;;21.63;18.03;;;;;;;;;;4887727;28;20179;-42
2022/09/06 05:49:19;;;;;;;18.90;14.40;;;;;;;;;;4899344;29;20279;-41
2022/09/06 05:51:49;;;;;;;20.57;13.90;;;;;;;;;;4901039;29;20557;-42
2022/09/06 05:54:15;;;;;;;14.30;12.63;;;;;;;;;;4887665;29;20542;-42
2022/09/06 05:56:42;;;;;;;18.67;12.57;;;;;;;;;;4894742;29;20211;-42
2022/09/06 05:59:08;;;;;;;13.63;12.17;;;;;;;;;;4901001;29;20275;-41
2022/09/06 06:01:34;;;;;;;14.20;11.70;;;;;;;;;;4896372;29;20212;-42
2022/09/06 06:04:01;;;;;;;17.23;12.13;;;;;;;;;;4894501;29;20180;-43
2022/09/06 06:06:28;;;;;;;14.70;12.13;;;;;;;;;;4891769;28;21042;-42
2022/09/06 06:08:55;;;;;;;15.63;11.73;;;;;;;;;;4895390;29;20176;-43
2022/09/06 06:11:21;;;;;;;12.80;10.60;;;;;;;;;;4894751;29;20442;-43
2022/09/06 06:13:47;;;;;;;17.10;12.33;;;;;;;;;;4892727;29;20185;-42
2022/09/06 06:16:15;;;;;;;17.20;12.20;;;;;;;;;;4897307;29;20542;-42
2022/09/06 06:18:43;;;;;;;16.07;11.63;;;;;;;;;;4898780;29;20180;-42
2022/09/06 06:21:13;;;;;;;17.07;12.23;;;;;;;;;;4894147;29;20595;-41
2022/09/06 06:23:40;;;;;;;19.97;12.30;;;;;;;;;;4898422;29;20176;-42
2022/09/06 06:26:06;;;;;;;16.73;11.57;;;;;;;;;;4899246;28;20600;-42
2022/09/06 06:28:34;;;;;;;18.93;14.00;;;;;;;;;;4909486;28;20200;-41
2022/09/06 06:31:01;;;;;;;20.90;15.00;;;;;;;;;;4895288;29;20271;-42
2022/09/06 06:33:27;;;;;;;22.73;13.40;;;;;;;;;;4894193;29;20184;-42
2022/09/06 06:36:00;;;;;;;19.80;13.80;;;;;;;;;;4896703;29;20202;-41
2022/09/06 06:38:30;;;;;;;18.83;12.47;;;;;;;;;;4897086;29;20518;-42
2022/09/06 06:40:56;;;;;;;19.50;11.70;;;;;;;;;;4896549;29;20771;-43
2022/09/06 06:43:22;;;;;;;19.90;12.90;;;;;;;;;;4895023;29;20173;-40
2022/09/06 06:45:49;;;;;;;16.93;11.87;;;;;;;;;;4900572;29;20546;-42
2022/09/06 06:48:16;;;;;;;17.90;13.00;;;;;;;;;;4900577;29;20334;-41
2022/09/06 06:50:42;;;;;;;20.27;13.40;;;;;;;;;;4891769;29;20424;-42
2022/09/06 06:53:08;;;;;;;18.20;13.33;;;;;;;;;;4895400;29;20184;-41
2022/09/06 06:55:34;;;;;;;19.40;12.80;;;;;;;;;;4899103;29;20657;-42
2022/09/06 06:58:00;;;;;;;17.40;13.20;;;;;;;;;;4901315;29;20192;-42
2022/09/06 07:00:27;;;;;;;22.07;13.23;;;;;;;;;;4896784;29;21633;-42
2022/09/06 07:02:56;;;;;;;15.70;11.47;;;;;;;;;;4895164;29;20764;-42
2022/09/06 07:05:23;;;;;;;14.83;11.53;;;;;;;;;;4895986;29;20230;-42
2022/09/06 07:07:49;;;;;;;17.80;11.73;;;;;;;;;;4895615;28;20184;-42
2022/09/06 07:10:15;;;;;;;18.57;10.73;;;;;;;;;;4898555;29;20543;-42
2022/09/06 07:12:42;;;;;;;19.93;11.17;;;;;;;;;;4899272;29;20189;-42
2022/09/06 07:15:08;;;;;;;19.60;12.83;;;;;;;;;;4897074;29;20191;-42
2022/09/06 07:17:34;;;;;;;22.37;11.63;;;;;;;;;;4891857;28;20547;-42
2022/09/06 07:20:00;;;;;;;17.97;11.70;;;;;;;;;;4895108;29;20476;-42
2022/09/06 07:22:26;;;;;;;16.80;10.50;;;;;;;;;;4900025;29;20270;-42
2022/09/06 07:24:52;;;;;;;16.40;10.63;;;;;;;;;;4899748;29;20195;-42
2022/09/06 07:27:18;;;;;;;13.50;10.60;;;;;;;;;;4896813;29;20583;-41
2022/09/06 07:29:44;;;;;;;19.30;10.07;;;;;;;;;;4898415;29;20621;-42
2022/09/06 07:32:10;;;;;;;17.67;11.00;;;;;;;;;;4891164;29;20180;-42
2022/09/06 07:34:38;;;;;;;10.73;9.00;;;;;;;;;;4892801;29;20360;-42
2022/09/06 07:37:04;;;;;;;13.80;9.50;;;;;;;;;;4891166;28;20793;-42
2022/09/06 07:39:31;;;;;;;15.63;8.73;;;;;;;;;;4890244;29;20784;-42
2022/09/06 07:41:58;;;;;;;14.13;8.37;;;;;;;;;;4897322;29;20680;-42
2022/09/06 07:44:25;;;;;;;13.83;8.07;;;;;;;;;;4895337;29;20179;-42
2022/09/06 07:46:51;;;;;;;19.27;8.13;;;;;;;;;;4892644;29;20272;-41
2022/09/06 07:49:17;;;;;;;17.27;8.27;;;;;;;;;;4891408;29;20172;-42
2022/09/06 07:51:43;;;;;;;8.60;6.60;;;;;;;;;;4891098;29;20712;-41
2022/09/06 07:54:09;;;;;;;15.67;8.50;;;;;;;;;;4895179;29;20192;-42
2022/09/06 07:56:36;;;;;;;10.37;6.83;;;;;;;;;;4898284;28;20474;-41
2022/09/06 07:59:02;;;;;;;12.27;7.50;;;;;;;;;;4890561;29;20181;-41
2022/09/06 08:01:29;;;;;;;14.57;7.40;;;;;;;;;;4888322;28;20207;-43
2022/09/06 08:03:55;;;;;;;12.73;7.20;;;;;;;;;;4890013;29;20188;-43
2022/09/06 08:06:22;;;;;;;11.73;6.33;;;;;;;;;;4892124;29;20180;-42
2022/09/06 08:08:49;;;;;;;15.73;6.67;;;;;;;;;;4895744;29;21022;-43
2022/09/06 08:11:15;;;;;;;9.73;5.70;;;;;;;;;;4891019;29;20844;-43
2022/09/06 08:13:41;;;;;;;10.87;6.43;;;;;;;;;;4890903;29;20184;-43
2022/09/06 08:16:09;;;;;;;12.83;5.60;;;;;;;;;;4897197;29;20607;-42
2022/09/06 08:18:36;;;;;;;11.50;6.57;;;;;;;;;;4899413;29;20183;-42
2022/09/06 08:21:12;;;;;;;10.63;6.13;;;;;;;;;;4893951;29;20204;-42
2022/09/06 08:23:41;;;;;;;11.43;5.97;;;;;;;;;;4897190;29;20632;-43
2022/09/06 08:26:08;;;;;;;8.67;5.17;;;;;;;;;;4898248;29;20188;-43
2022/09/06 08:28:34;;;;;;;6.23;4.73;;;;;;;;;;4898461;28;20623;-42
2022/09/06 08:31:26;;;;;;;6.73;4.73;;;;;;;;;;4899498;29;20188;-43
2022/09/06 08:33:53;;;;;;;10.13;5.03;;;;;;;;;;4897465;29;20649;-41
2022/09/06 08:36:19;;;;;;;10.07;4.50;;;;;;;;;;4897631;29;20187;-42
2022/09/06 08:38:45;;;;;;;10.63;4.87;;;;;;;;;;4898585;29;20192;-42
2022/09/06 08:41:14;;;;;;;8.30;4.87;;;;;;;;;;4899350;29;20204;-43
2022/09/06 08:43:48;;;;;;;11.00;5.50;;;;;;;;;;4899665;29;20278;-42
2022/09/06 08:46:15;;;;;;;6.47;4.17;;;;;;;;;;4901222;29;20194;-42
2022/09/06 08:48:42;;;;;;;9.03;4.20;;;;;;;;;;4898611;29;20180;-42
2022/09/06 08:51:17;;;;;;;14.00;5.13;;;;;;;;;;4899488;29;20710;-42
2022/09/06 08:53:47;;;;;;;7.70;4.80;;;;;;;;;;4902699;29;20867;-41
2022/09/06 08:56:18;;;;;;;7.77;4.70;;;;;;;;;;4905355;29;20180;-41
2022/09/06 08:58:44;;;;;;;73.53;19.63;;;;;;;;;;4899439;29;20723;-42
2022/09/06 09:01:24;;;;;;;216.73;39.80;;;;;;;;;;4901976;29;20199;-42
2022/09/06 09:03:51;;;;;;;19.33;6.37;;;;;;;;;;4898971;29;20234;-42
2022/09/06 09:06:17;;;;;;;10.63;4.93;;;;;;;;;;4900053;28;20582;-43
2022/09/06 09:08:50;;;;;;;235.77;39.63;;;;;;;;;;4903629;29;20180;-42
2022/09/06 09:11:18;;;;;;;106.23;23.23;;;;;;;;;;4901895;29;20286;-42
2022/09/06 09:14:03;;;;;;;172.50;27.93;;;;;;;;;;4899515;29;20909;-42
2022/09/06 09:16:29;;;;;;;6.60;4.40;;;;;;;;;;4899362;29;20833;-42
2022/09/06 09:18:58;;;;;;;9.47;5.13;;;;;;;;;;4900487;29;20176;-42
2022/09/06 09:21:25;;;;;;;9.97;5.33;;;;;;;;;;4903201;29;20541;-42
2022/09/06 09:23:55;;;;;;;8.50;4.40;;;;;;;;;;4901462;29;20614;-42
2022/09/06 09:26:23;;;;;;;12.93;6.80;;;;;;;;;;4899744;29;20181;-43
2022/09/06 09:29:03;;;;;;;8.93;5.73;;;;;;;;;;4899143;29;20625;-43
2022/09/06 09:31:39;;;;;;;9.07;4.73;;;;;;;;;;4901952;29;20184;-43
2022/09/06 09:34:10;;;;;;;8.27;5.57;;;;;;;;;;4899142;29;20195;-43
2022/09/06 09:36:36;;;;;;;5.83;5.10;;;;;;;;;;4896185;29;20311;-43
2022/09/06 09:39:08;;;;;;;8.37;5.00;;;;;;;;;;4899630;29;20188;-42
2022/09/06 09:41:37;;;;;;;9.93;5.17;;;;;;;;;;4903428;29;20203;-43
2022/09/06 09:44:05;;;;;;;9.70;5.83;;;;;;;;;;4901349;29;20177;-43
2022/09/06 09:46:33;;;;;;;9.23;7.43;;;;;;;;;;4896690;29;20176;-42
2022/09/06 09:49:01;;;;;;;11.47;6.67;;;;;;;;;;4896688;29;20704;-41
2022/09/06 09:51:29;;;;;;;7.13;6.10;;;;;;;;;;4898833;29;20537;-43
2022/09/06 09:53:56;;;;;;;10.33;7.37;;;;;;;;;;4900976;29;20810;-42
2022/09/06 09:56:32;;;;;;;11.63;6.87;;;;;;;;;;4899372;28;20924;-43
2022/09/06 09:58:59;;;;;;;12.50;9.67;;;;;;;;;;4897949;29;20180;-42
2022/09/06 10:01:30;;;;;;;13.60;9.07;;;;;;;;;;4899241;29;20989;-43
2022/09/06 10:04:04;;;;;;;10.70;9.40;;;;;;;;;;4899497;29;20440;-41
2022/09/06 10:06:30;;;;;;;11.40;9.57;;;;;;;;;;4898256;29;20174;-41
2022/09/06 10:08:56;;;;;;;11.03;7.93;;;;;;;;;;4897729;29;20177;-42
2022/09/06 10:11:49;;;;;;;12.13;9.17;;;;;;;;;;4902030;29;20226;-43
2022/09/06 10:14:24;;;;;;;12.37;8.87;;;;;;;;;;4901677;29;20742;-43
2022/09/06 10:16:51;;;;;;;9.83;7.63;;;;;;;;;;4897803;29;20239;-42
2022/09/06 10:19:45;;;;;;;15.20;9.67;;;;;;;;;;4900220;29;20248;-41
2022/09/06 10:22:20;;;;;;;10.67;7.50;;;;;;;;;;4899652;29;20239;-43
2022/09/06 10:24:55;;;;;;;12.73;7.53;;;;;;;;;;4899631;29;20412;-42
2022/09/06 10:27:25;;;;;;;12.60;7.83;;;;;;;;;;4897729;29;20503;-41
2022/09/06 10:29:57;;;;;;;9.17;7.50;;;;;;;;;;4896389;29;20177;-43
2022/09/06 10:32:42;;;;;;;8.20;6.83;;;;;;;;;;4898331;29;20646;-41
2022/09/06 10:35:10;;;;;;;13.57;6.80;;;;;;;;;;4901039;29;20641;-43
2022/09/06 10:37:36;;;;;;;11.10;6.87;;;;;;;;;;4895254;29;20176;-43
2022/09/06 10:40:05;;;;;;;8.67;6.83;;;;;;;;;;4900243;29;20218;-43
2022/09/06 10:42:33;;;;;;;8.87;5.77;;;;;;;;;;4899823;29;20641;-43
2022/09/06 10:45:27;;;;;;;9.57;6.07;;;;;;;;;;4895303;29;20687;-43
2022/09/06 10:48:23;;;;;;;12.90;6.77;;;;;;;;;;4897239;29;20176;-42
2022/09/06 10:50:57;;;;;;;11.00;5.70;;;;;;;;;;4904974;28;20289;-42
2022/09/06 10:53:27;;;;;;;8.20;5.70;;;;;;;;;;4899138;29;20431;-43
2022/09/06 10:56:02;;;;;;;10.87;8.00;;;;;;;;;;4897585;29;20195;-43
2022/09/06 10:58:31;;;;;;;12.63;8.73;;;;;;;;;;4896240;29;20214;-42
2022/09/06 11:00:57;;;;;;;13.10;8.70;;;;;;;;;;4898234;29;20192;-43
2022/09/06 11:03:40;;;;;;;11.30;7.40;;;;;;;;;;4898974;29;20168;-43
2022/09/06 11:06:10;;;;;;;9.73;7.00;;;;;;;;;;4896537;29;20441;-43
2022/09/06 11:08:43;;;;;;;9.47;6.10;;;;;;;;;;4893629;29;20180;-43
2022/09/06 11:11:13;;;;;;;11.30;6.27;;;;;;;;;;4897301;29;20164;-42
2022/09/06 11:13:39;;;;;;;9.70;6.03;;;;;;;;;;4894706;29;20180;-43
2022/09/06 11:16:07;;;;;;;9.20;6.00;;;;;;;;;;4897124;29;20288;-42
2022/09/06 11:18:38;;;;;;;7.37;5.43;;;;;;;;;;4897955;29;20207;-43
2022/09/06 11:21:13;;;;;;;7.47;5.50;;;;;;;;;;4900781;29;20196;-42
2022/09/06 11:23:49;;;;;;;8.43;5.73;;;;;;;;;;4899040;29;20863;-43
2022/09/06 11:26:15;;;;;;;8.83;5.23;;;;;;;;;;4898158;28;20695;-43
2022/09/06 11:28:48;;;;;;;6.20;4.97;;;;;;;;;;4896709;29;20227;-43
2022/09/06 11:31:25;;;;;;;7.27;5.30;;;;;;;;;;4897150;29;20462;-42
2022/09/06 11:34:09;;;;;;;8.80;5.03;;;;;;;;;;4898292;29;20756;-43
2022/09/06 11:36:37;;;;;;;7.33;5.23;;;;;;;;;;4896490;29;20287;-43
2022/09/06 11:39:04;;;;;;;8.10;5.27;;;;;;;;;;4896811;29;20246;-42
2022/09/06 11:41:41;;;;;;;10.00;5.37;;;;;;;;;;4895123;29;20212;-43
2022/09/06 11:44:08;;;;;;;11.40;5.73;;;;;;;;;;4897166;29;20367;-41
2022/09/06 11:46:34;;;;;;;8.50;6.50;;;;;;;;;;4900031;29;20811;-41
2022/09/06 11:49:09;;;;;;;10.47;5.07;;;;;;;;;;4899552;29;20338;-43
2022/09/06 11:51:37;;;;;;;9.97;5.83;;;;;;;;;;4898577;29;20290;-43
2022/09/06 11:54:05;;;;;;;7.43;4.57;;;;;;;;;;4898456;29;20179;-42
2022/09/06 11:56:35;;;;;;;9.30;5.63;;;;;;;;;;4899212;29;20402;-42
2022/09/06 11:59:10;;;;;;;6.00;4.93;;;;;;;;;;4895040;29;20725;-42
2022/09/06 12:01:37;;;;;;;7.97;4.43;;;;;;;;;;4890994;29;22483;-42
2022/09/06 12:04:05;;;;;;;6.70;4.00;;;;;;;;;;4898348;29;20917;-43
2022/09/06 12:06:31;;;;;;;7.43;4.13;;;;;;;;;;4899664;29;20494;-43
2022/09/06 12:08:57;;;;;;;6.77;4.10;;;;;;;;;;4888642;29;20508;-43
2022/09/06 12:11:42;;;;;;;7.53;4.17;;;;;;;;;;4899426;29;20446;-42
2022/09/06 12:14:26;;;;;;;5.67;4.10;;;;;;;;;;4901420;29;20628;-43
2022/09/06 12:16:55;;;;;;;6.10;4.10;;;;;;;;;;4896544;29;20164;-42
2022/09/06 12:19:40;;;;;;;6.67;4.00;;;;;;;;;;4894258;29;20249;-41
2022/09/06 12:22:24;;;;;;;5.23;3.67;;;;;;;;;;4894995;29;20641;-42
2022/09/06 12:24:52;;;;;;;8.37;3.20;;;;;;;;;;4897380;29;20311;-41
2022/09/06 12:27:20;;;;;;;13.60;4.30;;;;;;;;;;4897893;29;20403;-43
2022/09/06 12:29:53;;;;;;;7.57;3.87;;;;;;;;;;4896328;28;20631;-43
2022/09/06 12:32:21;;;;;;;5.43;3.40;;;;;;;;;;4896484;29;20717;-43
2022/09/06 12:34:47;;;;;;;8.60;3.30;;;;;;;;;;4897395;29;20176;-42
2022/09/06 12:37:13;;;;;;;7.57;3.67;;;;;;;;;;4899297;29;20889;-42
2022/09/06 12:39:40;;;;;;;6.70;3.77;;;;;;;;;;4895304;29;20184;-43
2022/09/06 12:42:07;;;;;;;8.77;3.77;;;;;;;;;;4894325;29;20681;-43
2022/09/06 12:44:38;;;;;;;5.30;3.70;;;;;;;;;;4897595;29;20646;-43
2022/09/06 12:47:09;;;;;;;6.73;3.43;;;;;;;;;;4901321;28;20180;-43
2022/09/06 12:49:35;;;;;;;5.30;3.70;;;;;;;;;;4899109;28;20207;-43
2022/09/06 12:52:12;;;;;;;7.10;3.50;;;;;;;;;;4896399;29;20188;-43
2022/09/06 12:54:43;;;;;;;8.37;3.40;;;;;;;;;;4894440;29;20323;-43
2022/09/06 12:57:14;;;;;;;7.43;3.70;;;;;;;;;;4897164;28;20184;-43
2022/09/06 12:59:49;;;;;;;4.30;3.70;;;;;;;;;;4896962;29;20635;-43
2022/09/06 13:02:21;;;;;;;7.27;3.20;;;;;;;;;;4896032;29;20780;-41
2022/09/06 13:04:52;;;;;;;5.97;3.30;;;;;;;;;;4895392;29;20695;-43
2022/09/06 13:07:20;;;;;;;6.80;2.90;;;;;;;;;;4898290;29;20641;-43
2022/09/06 13:09:48;;;;;;;4.87;3.20;;;;;;;;;;4899033;29;20572;-43
2022/09/06 13:12:25;;;;;;;5.93;3.40;;;;;;;;;;4896942;29;20186;-43
2022/09/06 13:14:53;;;;;;;6.50;3.40;;;;;;;;;;4895954;29;20192;-42
2022/09/06 13:17:23;;;;;;;7.17;2.93;;;;;;;;;;4894449;29;20697;-43
2022/09/06 13:19:49;;;;;;;7.43;3.43;;;;;;;;;;4898646;29;20189;-43
2022/09/06 13:22:35;;;;;;;8.13;3.37;;;;;;;;;;4897293;29;20208;-42
2022/09/06 13:25:01;;;;;;;7.13;3.30;;;;;;;;;;4892566;29;20540;-42
2022/09/06 13:27:27;;;;;;;11.23;4.10;;;;;;;;;;4894763;29;20564;-43
2022/09/06 13:29:54;;;;;;;5.53;3.00;;;;;;;;;;4898122;29;20396;-42
2022/09/06 13:32:20;;;;;;;3.80;2.80;;;;;;;;;;4898772;29;20488;-43
2022/09/06 13:34:55;;;;;;;4.07;2.90;;;;;;;;;;4893892;29;20195;-43
2022/09/06 13:37:23;;;;;;;5.00;2.87;;;;;;;;;;4897324;29;20245;-43
2022/09/06 13:39:49;;;;;;;5.40;2.97;;;;;;;;;;4900512;29;20559;-43
2022/09/06 13:42:24;;;;;;;6.13;3.13;;;;;;;;;;4905172;29;20195;-43
2022/09/06 13:44:51;;;;;;;5.20;2.93;;;;;;;;;;4901883;29;20541;-43
2022/09/06 13:47:17;;;;;;;8.47;3.50;;;;;;;;;;4899933;29;20971;-43
2022/09/06 13:49:43;;;;;;;7.10;2.67;;;;;;;;;;4899779;29;20413;-43
2022/09/06 13:52:09;;;;;;;7.73;2.90;;;;;;;;;;4903218;29;20626;-43
2022/09/06 13:54:35;;;;;;;7.07;2.60;;;;;;;;;;4904029;29;20173;-43
2022/09/06 13:57:01;;;;;;;10.23;2.53;;;;;;;;;;4902583;29;20183;-43
2022/09/06 13:59:29;;;;;;;5.83;2.70;;;;;;;;;;4898034;29;20200;-43
2022/09/06 14:02:06;;;;;;;5.73;2.53;;;;;;;;;;4899529;29;20203;-42
2022/09/06 14:04:33;;;;;;;10.27;3.57;;;;;;;;;;4899942;29;20173;-43
2022/09/06 14:06:59;;;;;;;5.73;2.90;;;;;;;;;;4903129;29;20191;-42
2022/09/06 14:09:25;;;;;;;5.53;2.47;;;;;;;;;;4899535;29;20645;-42
2022/09/06 14:11:51;;;;;;;5.70;2.57;;;;;;;;;;4900395;28;20191;-43
2022/09/06 14:14:18;;;;;;;5.07;2.20;;;;;;;;;;4900721;29;20551;-43
2022/09/06 14:16:45;;;;;;;6.77;2.70;;;;;;;;;;4901901;29;20176;-42
2022/09/06 14:19:11;;;;;;;5.17;2.43;;;;;;;;;;4901413;29;20735;-42
2022/09/06 14:21:37;;;;;;;4.47;2.00;;;;;;;;;;4899574;29;20566;-42
2022/09/06 14:24:03;;;;;;;5.17;2.20;;;;;;;;;;4900460;29;20656;-42
2022/09/06 14:26:29;;;;;;;7.00;2.50;;;;;;;;;;4903284;29;20179;-41
2022/09/06 14:28:55;;;;;;;5.57;1.80;;;;;;;;;;4902225;29;20508;-42
2022/09/06 14:31:24;;;;;;;8.37;2.40;;;;;;;;;;4900589;29;20187;-42
2022/09/06 14:33:51;;;;;;;7.87;2.67;;;;;;;;;;4899901;29;20635;-42
2022/09/06 14:36:18;;;;;;;6.47;2.27;;;;;;;;;;4899779;29;20212;-42
2022/09/06 14:38:45;;;;;;;4.20;2.27;;;;;;;;;;4901937;29;20173;-42
2022/09/06 14:41:13;;;;;;;4.63;2.53;;;;;;;;;;4898345;29;20499;-42
2022/09/06 14:43:39;;;;;;;5.37;2.37;;;;;;;;;;4899208;28;20196;-42
2022/09/06 14:46:07;;;;;;;6.30;2.27;;;;;;;;;;4897900;29;20173;-43